Terminal Aerodrome Forecast
Issued by NWS Twin Cities, MN

Home | Current Version | Previous Version | Text Only | Print | Product List | Glossary Off
Versions: 1 2 3 4 5 6 7 8 9 10 11 12 13 14 15

565
FTUS43 KMPX 201855 AAA
TAFEAU
TAF AMD
KEAU 201855Z 2019/2118 20006KT P6SM FEW025 BKN040
     FM202000 27008KT P6SM BKN040
     FM210000 31004KT P6SM SKC
     FM211500 12007KT P6SM SKC=

USA.gov is the U.S. government's official web portal to all federal, state and local government web resources and services.